createdAt,value
2023-01-19T00:00:07.550Z,0.88715
2023-01-19T00:05:09.174Z,0
2023-01-19T00:10:10.760Z,0
2023-01-19T00:15:12.268Z,0
2023-01-19T00:20:14.121Z,0
2023-01-19T00:25:16.161Z,0.88715
2023-01-19T00:30:17.957Z,0
2023-01-19T00:35:19.677Z,0
2023-01-19T00:40:21.574Z,0
2023-01-19T00:45:23.280Z,0.88715
2023-01-19T00:50:24.820Z,0
2023-01-19T00:55:26.798Z,0
2023-01-19T01:00:28.943Z,0
2023-01-19T01:05:30.704Z,0.88715
2023-01-19T01:10:32.268Z,0
2023-01-19T01:15:34.023Z,0.88715
2023-01-19T01:20:36.386Z,0.88715
2023-01-19T01:25:38.663Z,0.88715
2023-01-19T01:30:40.461Z,0
2023-01-19T01:35:42.231Z,0
2023-01-19T01:40:44.014Z,0
2023-01-19T01:45:45.829Z,0
2023-01-19T01:50:47.483Z,0
2023-01-19T01:55:49.134Z,0.88715
2023-01-19T02:00:50.847Z,0.88715
2023-01-19T02:05:52.398Z,0
2023-01-19T02:10:54.179Z,0.88715
2023-01-19T02:15:55.878Z,0
2023-01-19T02:20:57.495Z,0
2023-01-19T02:25:59.993Z,0
2023-01-19T02:31:01.620Z,0.88715
2023-01-19T02:36:03.453Z,0.88715
2023-01-19T02:41:05.000Z,0.88715
2023-01-19T02:46:06.810Z,0.88715
2023-01-19T02:51:08.361Z,0.88715
2023-01-19T02:56:10.648Z,0.88715
2023-01-19T03:01:12.263Z,0.88715
2023-01-19T03:06:13.891Z,1.16185
2023-01-19T03:11:15.669Z,1.3463
2023-01-19T03:16:17.489Z,1.6592
2023-01-19T03:21:19.364Z,3.67395
2023-01-19T03:26:21.338Z,12.1167
2023-01-19T03:31:23.089Z,22.5182
2023-01-19T03:36:24.898Z,39.8908
2023-01-19T03:41:26.644Z,60.9334
2023-01-19T03:46:28.451Z,92.67225
2023-01-19T03:51:30.239Z,119.57925
2023-01-19T03:56:32.282Z,155.5966
2023-01-19T04:01:34.186Z,197.97655
2023-01-19T04:06:36.027Z,235.1006
2023-01-19T04:11:37.585Z,249.11695
2023-01-19T04:16:39.374Z,302.19315
2023-01-19T04:21:41.143Z,345.14545
2023-01-19T04:26:43.601Z,515.4086
2023-01-19T04:31:45.413Z,352.94565
2023-01-19T04:36:47.045Z,374.74505
2023-01-19T04:41:48.945Z,430.95875
2023-01-19T04:46:50.742Z,502.06935
2023-01-19T04:51:52.618Z,538.6039
2023-01-19T04:56:55.352Z,561.52715
2023-01-19T05:01:56.989Z,605.8619
2023-01-19T05:06:58.486Z,640.995
2023-01-19T05:12:00.217Z,687.6173
2023-01-19T05:17:01.821Z,713.51075
2023-01-19T05:22:03.757Z,749.25235
2023-01-19T05:27:06.251Z,792.4081
2023-01-19T05:32:07.822Z,811.8305
2023-01-19T05:37:09.489Z,841.82355
2023-01-19T05:42:11.178Z,840.55325
2023-01-19T05:47:13.037Z,838.6763
2023-01-19T05:52:14.925Z,879.32945
2023-01-19T05:57:16.791Z,906.4816
2023-01-19T06:02:18.613Z,875.6085
2023-01-19T06:07:20.323Z,847.3621
2023-01-19T06:12:22.187Z,792.28805
2023-01-19T06:17:23.841Z,939.4541
2023-01-19T06:22:25.502Z,957.60535
2023-01-19T06:27:27.459Z,876.5706
2023-01-19T06:32:29.250Z,826.56095
2023-01-19T06:37:31.024Z,1120.8524
2023-01-19T06:42:32.834Z,1134.65975
2023-01-19T06:47:34.578Z,953.0627
2023-01-19T06:52:36.364Z,830.6597
2023-01-19T06:57:39.072Z,1087.19435
2023-01-19T07:02:40.929Z,882.6329
2023-01-19T07:07:42.721Z,1165.71085
2023-01-19T07:12:44.589Z,1104.3909
2023-01-19T07:17:46.149Z,1063.66225
2023-01-19T07:22:48.020Z,1137.8007
2023-01-19T07:27:50.464Z,1134.9562
2023-01-19T07:32:52.183Z,1157.65175
2023-01-19T07:37:54.049Z,1251.63415
2023-01-19T07:42:55.836Z,1205.2568
2023-01-19T07:47:57.413Z,1188.565
2023-01-19T07:52:59.687Z,1282.151
2023-01-19T07:58:01.690Z,1280.5509
2023-01-19T08:03:03.673Z,1308.4616
2023-01-19T08:08:05.576Z,1336.66825
2023-01-19T08:13:07.455Z,1385.9112
2023-01-19T08:18:09.044Z,1382.6523
2023-01-19T08:23:10.642Z,1451.15345
2023-01-19T08:28:13.247Z,1391.80855
2023-01-19T08:33:14.717Z,1464.62275
2023-01-19T08:38:16.355Z,1506.0253
2023-01-19T08:43:18.117Z,1588.9862
2023-01-19T08:48:19.839Z,1786.6092
2023-01-19T08:53:21.369Z,1155.46185
2023-01-19T08:58:23.062Z,905.05005
2023-01-19T09:03:24.598Z,1015.06615
2023-01-19T09:08:26.271Z,1239.60535
2023-01-19T09:13:27.782Z,1208.80035
2023-01-19T09:18:29.286Z,1124.2059
2023-01-19T09:23:30.769Z,1013.4024
2023-01-19T09:28:32.824Z,1012.60945
2023-01-19T09:33:34.486Z,1170.25215
2023-01-19T09:38:35.929Z,1145.57385
2023-01-19T09:43:37.614Z,2029.09045
2023-01-19T09:48:39.232Z,1537.37725
2023-01-19T09:53:41.084Z,1751.1901
2023-01-19T09:58:43.259Z,1956.43655
2023-01-19T10:03:44.808Z,1770.03125
2023-01-19T10:08:46.602Z,1644.70395
2023-01-19T10:13:48.233Z,1460.5164
2023-01-19T10:18:50.031Z,1154.471
2023-01-19T10:23:51.751Z,1003.74055
2023-01-19T10:28:53.841Z,830.54335
2023-01-19T10:33:56.631Z,796.8117
2023-01-19T10:38:58.134Z,868.9947
2023-01-19T10:43:59.845Z,854.03895
2023-01-19T10:49:01.471Z,966.89225
2023-01-19T10:54:03.197Z,1076.6289
2023-01-19T10:59:05.247Z,1088.2627
2023-01-19T11:04:06.969Z,1734.16035
2023-01-19T11:09:08.581Z,1798.4278
2023-01-19T11:14:10.227Z,2212.63305
2023-01-19T11:19:11.927Z,2327.7169
2023-01-19T11:24:13.400Z,2294.8811
2023-01-19T11:29:15.791Z,2408.0463
2023-01-19T11:34:17.455Z,2403.45775
2023-01-19T11:39:18.959Z,2492.22965
2023-01-19T11:44:20.583Z,2545.25625
2023-01-19T11:49:22.184Z,2317.6801
2023-01-19T11:54:23.809Z,1400.6233
2023-01-19T11:59:25.882Z,2096.16795
2023-01-19T12:04:27.502Z,1084.60985
2023-01-19T12:09:29.291Z,733.89105
2023-01-19T12:14:31.212Z,361.6792
2023-01-19T12:19:33.054Z,201.8917
2023-01-19T12:24:34.958Z,125.44735
2023-01-19T12:29:37.359Z,95.3857
2023-01-19T12:34:39.121Z,85.64785
2023-01-19T12:39:40.918Z,58.9063
2023-01-19T12:44:42.728Z,40.11325
2023-01-19T12:49:44.486Z,40.72175
2023-01-19T12:54:46.282Z,39.3203
2023-01-19T12:59:48.337Z,52.72815
2023-01-19T13:04:50.102Z,67.29785
2023-01-19T13:09:51.898Z,142.7838
2023-01-19T13:14:53.793Z,170.92865
2023-01-19T13:19:55.414Z,196.41705
2023-01-19T13:24:57.026Z,230.7572
2023-01-19T13:30:00.242Z,266.31435
2023-01-19T13:35:02.483Z,276.73485
2023-01-19T13:40:04.468Z,292.2268
2023-01-19T13:45:06.068Z,322.91595
2023-01-19T13:50:07.651Z,357.45955
2023-01-19T13:55:10.009Z,396.30065
2023-01-19T14:00:12.556Z,445.1192
2023-01-19T14:05:14.417Z,474.4069
2023-01-19T14:10:15.944Z,505.44595
2023-01-19T14:15:17.452Z,543.9543
2023-01-19T14:20:18.896Z,558.524
2023-01-19T14:25:21.206Z,570.19765
2023-01-19T14:30:23.267Z,566.02945
2023-01-19T14:35:25.020Z,553.2301
2023-01-19T14:40:33.997Z,531.98405
2023-01-19T14:45:36.088Z,513.7805
2023-01-19T14:50:37.888Z,495.09775
2023-01-19T14:55:39.896Z,477.7613
2023-01-19T15:00:42.364Z,456.4411
2023-01-19T15:05:44.311Z,424.7194
2023-01-19T15:10:46.084Z,411.92005
2023-01-19T15:15:47.977Z,392.33405
2023-01-19T15:20:49.793Z,378.2987
2023-01-19T15:25:51.652Z,356.8682
2023-01-19T15:30:53.981Z,333.3536
2023-01-19T15:35:55.900Z,311.1853
2023-01-19T15:40:57.801Z,278.8741
2023-01-19T15:45:59.391Z,264.46985
2023-01-19T15:51:00.943Z,244.25635
2023-01-19T15:56:02.508Z,222.08805
2023-01-19T16:01:04.402Z,198.2787
2023-01-19T16:06:05.974Z,181.07155
2023-01-19T16:11:07.548Z,163.44035
2023-01-19T16:16:09.173Z,146.2332
2023-01-19T16:21:10.657Z,127.67975
2023-01-19T16:26:12.062Z,111.8189
2023-01-19T16:31:13.998Z,95.534
2023-01-19T16:36:15.733Z,78.45615
2023-01-19T16:41:17.166Z,62.3387
2023-01-19T16:46:18.668Z,54.1019
2023-01-19T16:51:20.160Z,46.4577
2023-01-19T16:56:21.682Z,27.67315
2023-01-19T17:01:23.810Z,15.99015
2023-01-19T17:06:25.386Z,7.28865
2023-01-19T17:11:26.892Z,4.96115
2023-01-19T17:16:28.481Z,2.42955
2023-01-19T17:21:30.009Z,0.8296
2023-01-19T17:26:31.516Z,1.16185
2023-01-19T17:31:33.720Z,0.88715
2023-01-19T17:36:35.222Z,0.88715
2023-01-19T17:41:36.682Z,0
2023-01-19T17:46:38.180Z,0.88715
2023-01-19T17:51:39.882Z,0
2023-01-19T17:56:41.652Z,0.88715
2023-01-19T18:01:43.387Z,0.88715
2023-01-19T18:06:45.050Z,0
2023-01-19T18:11:46.766Z,0.88715
2023-01-19T18:16:48.380Z,0.88715
2023-01-19T18:21:50.188Z,0
2023-01-19T18:26:53.681Z,0.88715
2023-01-19T18:31:56.751Z,0
2023-01-19T18:36:58.281Z,0
2023-01-19T18:41:59.817Z,0
2023-01-19T18:47:01.290Z,0
2023-01-19T18:52:02.993Z,0.88715
2023-01-19T18:57:04.479Z,0.88715
2023-01-19T19:02:06.288Z,0
2023-01-19T19:07:07.810Z,0
2023-01-19T19:12:09.277Z,0.88715
2023-01-19T19:17:10.743Z,0
2023-01-19T19:22:12.186Z,0.88715
2023-01-19T19:27:13.762Z,0
2023-01-19T19:32:15.567Z,0
2023-01-19T19:37:17.066Z,0
2023-01-19T19:42:18.784Z,0
2023-01-19T19:47:20.539Z,0
2023-01-19T19:52:22.573Z,0.88715
2023-01-19T19:57:24.371Z,0.88715
2023-01-19T20:02:26.636Z,0
2023-01-19T20:07:28.465Z,0.88715
2023-01-19T20:12:30.415Z,0
2023-01-19T20:17:32.279Z,0.88715
2023-01-19T20:22:34.124Z,0.88715
2023-01-19T20:27:35.916Z,0
2023-01-19T20:32:37.972Z,0
2023-01-19T20:37:39.449Z,0.88715
2023-01-19T20:42:40.952Z,0.88715
2023-01-19T20:47:42.461Z,0.88715
2023-01-19T20:52:43.901Z,0.88715
2023-01-19T20:57:45.819Z,0
2023-01-19T21:02:47.560Z,0
2023-01-19T21:07:49.391Z,0.88715
2023-01-19T21:12:51.181Z,0
2023-01-19T21:17:52.997Z,0.88715
2023-01-19T21:22:55.134Z,0
2023-01-19T21:27:56.824Z,0
2023-01-19T21:32:58.923Z,0
2023-01-19T21:38:00.798Z,0
2023-01-19T21:43:02.350Z,0.88715
2023-01-19T21:48:04.119Z,0
2023-01-19T21:53:05.809Z,0
2023-01-19T21:58:07.349Z,0.88715
2023-01-19T22:03:09.109Z,0
2023-01-19T22:08:10.657Z,0
2023-01-19T22:13:12.354Z,0.88715
2023-01-19T22:18:13.794Z,0.88715
2023-01-19T22:23:15.398Z,0.88715
2023-01-19T22:28:16.865Z,0
2023-01-19T22:33:18.736Z,0.88715
2023-01-19T22:38:20.333Z,0.88715
2023-01-19T22:43:22.096Z,0
2023-01-19T22:48:23.940Z,0.88715
2023-01-19T22:53:25.699Z,0
2023-01-19T22:58:27.695Z,0
2023-01-19T23:03:29.914Z,0.88715
2023-01-19T23:08:31.966Z,0
2023-01-19T23:13:33.543Z,0.88715
2023-01-19T23:18:35.493Z,0
2023-01-19T23:23:37.288Z,0
2023-01-19T23:28:39.193Z,0
2023-01-19T23:33:41.625Z,0.88715
2023-01-19T23:38:43.586Z,0
2023-01-19T23:43:45.141Z,0.88715
2023-01-19T23:48:47.196Z,0.88715
2023-01-19T23:53:49.000Z,0
2023-01-19T23:58:50.686Z,0
